createdAt,value
2024-02-26T00:02:20.795Z,-0.12
2024-02-26T00:04:48.569Z,-0.11
2024-02-26T00:07:15.558Z,-0.13
2024-02-26T00:09:42.564Z,-0.14
2024-02-26T00:12:09.695Z,-0.16
2024-02-26T00:14:36.907Z,-0.16
2024-02-26T00:17:03.975Z,-0.14
2024-02-26T00:19:31.169Z,-0.14
2024-02-26T00:21:58.300Z,-0.10
2024-02-26T00:24:26.814Z,-0.08
2024-02-26T00:26:56.068Z,-0.08
2024-02-26T00:29:23.542Z,-0.11
2024-02-26T00:31:50.564Z,-0.13
2024-02-26T00:34:17.737Z,-0.10
2024-02-26T00:36:45.040Z,-0.11
2024-02-26T00:39:13.188Z,-0.12
2024-02-26T00:41:42.242Z,-0.13
2024-02-26T00:44:09.535Z,-0.12
2024-02-26T00:46:37.003Z,-0.17
2024-02-26T00:49:04.543Z,-0.10
2024-02-26T00:51:32.436Z,-0.10
2024-02-26T00:53:59.626Z,-0.06
2024-02-26T00:56:26.902Z,-0.07
2024-02-26T00:58:53.981Z,0.00
2024-02-26T01:01:21.300Z,0.01
2024-02-26T01:03:48.634Z,0.05
2024-02-26T01:06:15.762Z,0.07
2024-02-26T01:08:43.241Z,0.08
2024-02-26T01:11:29.569Z,0.05
2024-02-26T01:13:58.102Z,0.03
2024-02-26T01:16:25.494Z,0.05
2024-02-26T01:18:52.719Z,0.05
2024-02-26T01:21:19.971Z,0.06
2024-02-26T01:23:47.051Z,0.09
2024-02-26T01:26:14.612Z,0.08
2024-02-26T01:28:41.654Z,0.03
2024-02-26T01:31:10.772Z,-0.01
2024-02-26T01:33:38.194Z,-0.04
2024-02-26T01:36:05.816Z,-0.09
2024-02-26T01:38:33.089Z,-0.02
2024-02-26T01:41:00.177Z,-0.04
2024-02-26T01:43:27.324Z,-0.05
2024-02-26T01:45:54.983Z,-0.05
2024-02-26T01:48:22.543Z,-0.01
2024-02-26T01:50:49.795Z,-0.03
2024-02-26T01:53:18.676Z,-0.07
2024-02-26T01:55:46.296Z,-0.13
2024-02-26T01:58:14.445Z,-0.12
2024-02-26T02:00:41.820Z,-0.13
2024-02-26T02:03:09.163Z,-0.14
2024-02-26T02:05:43.237Z,-0.13
2024-02-26T02:08:12.574Z,-0.13
2024-02-26T02:10:40.726Z,-0.17
2024-02-26T02:13:08.542Z,-0.20
2024-02-26T02:15:36.398Z,-0.21
2024-02-26T02:18:04.201Z,-0.23
2024-02-26T02:20:35.334Z,-0.25
2024-02-26T02:23:04.407Z,-0.24
2024-02-26T02:25:31.453Z,-0.27
2024-02-26T02:27:59.062Z,-0.23
2024-02-26T02:30:29.388Z,-0.25
2024-02-26T02:32:57.003Z,-0.27
2024-02-26T02:35:24.488Z,-0.31
2024-02-26T02:37:53.827Z,-0.33
2024-02-26T02:40:20.943Z,-0.32
2024-02-26T02:42:48.320Z,-0.39
2024-02-26T02:45:15.457Z,-0.37
2024-02-26T02:47:42.744Z,-0.37
2024-02-26T02:50:10.333Z,-0.39
2024-02-26T02:52:37.447Z,-0.47
2024-02-26T02:55:05.101Z,-0.45
2024-02-26T02:57:33.449Z,-0.50
2024-02-26T03:00:01.096Z,-0.54
2024-02-26T03:02:28.170Z,-0.54
2024-02-26T03:04:55.278Z,-0.54
2024-02-26T03:07:22.399Z,-0.50
2024-02-26T03:09:49.543Z,-0.49
2024-02-26T03:12:16.704Z,-0.50
2024-02-26T03:14:44.028Z,-0.50
2024-02-26T03:17:11.014Z,-0.53
2024-02-26T03:19:38.170Z,-0.51
2024-02-26T03:22:05.486Z,-0.54
2024-02-26T03:24:32.648Z,-0.54
2024-02-26T03:26:59.685Z,-0.57
2024-02-26T03:29:26.923Z,-0.57
2024-02-26T03:31:53.895Z,-0.58
2024-02-26T03:36:48.121Z,-0.60
2024-02-26T03:39:15.179Z,-0.62
2024-02-26T03:41:42.634Z,-0.62
2024-02-26T03:44:09.679Z,-0.62
2024-02-26T03:46:36.948Z,-0.63
2024-02-26T03:49:04.419Z,-0.64
2024-02-26T03:51:32.849Z,-0.71
2024-02-26T03:54:00.159Z,-0.67
2024-02-26T03:56:28.808Z,-0.63
2024-02-26T03:58:55.856Z,-0.64
2024-02-26T04:01:23.006Z,-0.68
2024-02-26T04:03:50.035Z,-0.69
2024-02-26T04:06:19.398Z,-0.71
2024-02-26T04:08:46.778Z,-0.73
2024-02-26T04:11:14.533Z,-0.73
2024-02-26T04:13:41.589Z,-0.73
2024-02-26T04:16:08.639Z,-0.75
2024-02-26T04:18:35.762Z,-0.72
2024-02-26T04:21:04.163Z,-0.71
2024-02-26T04:23:32.237Z,-0.70
2024-02-26T04:25:59.662Z,-0.70
2024-02-26T04:28:27.618Z,-0.73
2024-02-26T04:30:54.740Z,-0.75
2024-02-26T04:33:22.099Z,-0.76
2024-02-26T04:35:49.457Z,-0.79
2024-02-26T04:38:16.563Z,-0.80
2024-02-26T04:40:43.616Z,-0.78
2024-02-26T04:43:10.764Z,-0.81
2024-02-26T04:45:37.842Z,-0.82
2024-02-26T04:48:05.370Z,-0.81
2024-02-26T04:50:32.478Z,-0.80
2024-02-26T04:52:59.507Z,-0.83
2024-02-26T04:55:26.679Z,-0.82
2024-02-26T04:57:53.793Z,-0.82
2024-02-26T05:00:21.154Z,-0.82
2024-02-26T05:02:48.450Z,-0.81
2024-02-26T05:05:15.623Z,-0.79
2024-02-26T05:07:46.528Z,-0.78
2024-02-26T05:10:13.859Z,-0.80
2024-02-26T05:12:43.827Z,-0.80
2024-02-26T05:15:12.033Z,-0.75
2024-02-26T05:17:39.229Z,-0.68
2024-02-26T05:20:09.224Z,-0.70
2024-02-26T05:22:36.413Z,-0.65
2024-02-26T05:25:04.405Z,-0.69
2024-02-26T05:27:31.861Z,-0.60
2024-02-26T05:29:59.052Z,-0.52
2024-02-26T05:32:26.179Z,-0.48
2024-02-26T05:34:53.365Z,-0.49
2024-02-26T05:37:20.422Z,-0.50
2024-02-26T05:39:47.588Z,-0.50
2024-02-26T05:42:14.671Z,-0.46
2024-02-26T05:44:41.814Z,-0.46
2024-02-26T05:47:08.931Z,-0.48
2024-02-26T05:49:36.124Z,-0.46
2024-02-26T05:52:03.434Z,-0.42
2024-02-26T05:54:30.614Z,-0.44
2024-02-26T05:56:57.660Z,-0.38
2024-02-26T05:59:25.147Z,-0.33
2024-02-26T06:01:52.184Z,-0.26
2024-02-26T06:04:19.584Z,-0.20
2024-02-26T06:06:47.092Z,-0.20
2024-02-26T06:09:14.341Z,-0.18
2024-02-26T06:11:41.554Z,-0.15
2024-02-26T06:14:08.815Z,-0.18
2024-02-26T06:16:36.114Z,-0.20
2024-02-26T06:19:03.538Z,-0.24
2024-02-26T06:21:31.046Z,-0.23
2024-02-26T06:23:58.154Z,-0.20
2024-02-26T06:26:25.231Z,-0.13
2024-02-26T06:28:53.698Z,-0.15
2024-02-26T06:31:21.784Z,-0.19
2024-02-26T06:33:49.488Z,-0.19
2024-02-26T06:36:19.472Z,-0.18
2024-02-26T06:38:46.637Z,-0.19
2024-02-26T06:41:13.756Z,-0.09
2024-02-26T06:43:40.739Z,-0.07
2024-02-26T06:46:08.555Z,-0.03
2024-02-26T06:48:38.169Z,-0.01
2024-02-26T06:51:05.493Z,0.00
2024-02-26T06:53:32.524Z,0.01
2024-02-26T06:55:59.771Z,-0.05
2024-02-26T06:58:27.042Z,-0.01
2024-02-26T07:00:54.190Z,0.04
2024-02-26T07:03:21.574Z,0.10
2024-02-26T07:05:49.037Z,0.17
2024-02-26T07:08:16.486Z,0.20
2024-02-26T07:10:44.805Z,0.27
2024-02-26T07:13:11.858Z,0.39
2024-02-26T07:15:38.921Z,0.51
2024-02-26T07:18:06.421Z,0.58
2024-02-26T07:20:33.573Z,0.66
2024-02-26T07:23:00.827Z,0.71
2024-02-26T07:25:27.913Z,0.71
2024-02-26T07:27:54.909Z,0.68
2024-02-26T07:30:22.125Z,0.65
2024-02-26T07:32:51.391Z,0.63
2024-02-26T07:35:18.977Z,0.69
2024-02-26T07:37:49.739Z,0.71
2024-02-26T07:40:17.022Z,0.78
2024-02-26T07:42:44.837Z,0.78
2024-02-26T07:45:12.254Z,0.87
2024-02-26T07:47:42.257Z,0.95
2024-02-26T07:50:10.323Z,0.99
2024-02-26T07:52:37.522Z,0.98
2024-02-26T07:55:07.767Z,1.04
2024-02-26T07:57:35.634Z,1.10
2024-02-26T08:00:04.752Z,1.21
2024-02-26T08:02:33.070Z,1.30
2024-02-26T08:05:00.362Z,1.31
2024-02-26T08:07:27.703Z,1.26
2024-02-26T08:09:54.894Z,1.24
2024-02-26T08:12:22.138Z,1.24
2024-02-26T08:14:49.326Z,1.36
2024-02-26T08:18:06.773Z,1.42
2024-02-26T08:20:42.949Z,1.31
2024-02-26T08:27:59.605Z,1.51
2024-02-26T08:30:27.236Z,1.71
2024-02-26T08:33:19.635Z,1.76
2024-02-26T08:41:23.748Z,1.92
2024-02-26T09:04:43.317Z,2.28
2024-02-26T09:07:12.325Z,2.37
2024-02-26T09:18:36.234Z,2.39
2024-02-26T09:21:07.673Z,2.47
2024-02-26T09:23:36.322Z,2.55
2024-02-26T09:26:04.053Z,2.64
2024-02-26T09:28:36.066Z,2.64
2024-02-26T09:31:03.259Z,2.60
2024-02-26T09:33:30.592Z,2.51
2024-02-26T09:35:58.050Z,2.42
2024-02-26T09:38:25.290Z,2.34
2024-02-26T09:40:53.893Z,2.35
2024-02-26T09:43:24.765Z,2.36
2024-02-26T09:45:54.524Z,2.31
2024-02-26T09:48:23.862Z,2.39
2024-02-26T09:50:51.066Z,2.45
2024-02-26T09:53:19.469Z,2.53
2024-02-26T09:55:46.543Z,2.59
2024-02-26T09:58:19.808Z,2.74
2024-02-26T10:00:54.768Z,2.91
2024-02-26T10:03:23.387Z,3.02
2024-02-26T10:05:52.345Z,3.00
2024-02-26T10:08:23.439Z,2.97
2024-02-26T10:10:51.729Z,2.92
2024-02-26T10:13:18.797Z,2.89
2024-02-26T10:15:45.800Z,2.85
2024-02-26T10:18:13.116Z,2.87
2024-02-26T10:20:40.731Z,2.87
2024-02-26T10:23:08.299Z,2.98
2024-02-26T10:25:36.023Z,2.98
2024-02-26T10:28:06.297Z,3.00
2024-02-26T10:30:37.985Z,2.99
2024-02-26T10:33:05.467Z,3.08
2024-02-26T10:35:33.270Z,3.18
2024-02-26T10:38:00.881Z,3.29
2024-02-26T10:40:28.046Z,3.31
2024-02-26T10:42:55.126Z,3.34
2024-02-26T10:45:24.982Z,3.43
2024-02-26T10:47:52.455Z,3.53
2024-02-26T10:51:10.117Z,3.72
2024-02-26T11:05:14.727Z,3.31
2024-02-26T11:07:44.861Z,3.13
2024-02-26T11:13:58.497Z,3.18
2024-02-26T11:21:12.935Z,3.33
2024-02-26T11:24:30.397Z,3.50
2024-02-26T11:27:06.051Z,3.60
2024-02-26T11:30:02.321Z,3.63
2024-02-26T11:32:33.655Z,3.66
2024-02-26T11:35:01.392Z,3.59
2024-02-26T11:37:29.313Z,3.49
2024-02-26T11:40:00.012Z,3.38
2024-02-26T11:42:30.143Z,3.32
2024-02-26T11:45:04.012Z,3.34
2024-02-26T11:47:39.056Z,3.45
2024-02-26T11:50:37.798Z,3.68
2024-02-26T11:53:27.180Z,3.89
2024-02-26T11:56:28.395Z,4.03
2024-02-26T11:59:03.345Z,4.13
2024-02-26T12:01:50.085Z,4.22
2024-02-26T12:04:36.901Z,4.26
2024-02-26T12:07:05.280Z,4.31
2024-02-26T12:10:24.171Z,4.33
2024-02-26T12:12:54.094Z,4.33
2024-02-26T12:15:24.266Z,4.31
2024-02-26T12:17:52.471Z,4.22
2024-02-26T12:20:40.689Z,4.13
2024-02-26T12:23:08.392Z,4.02
2024-02-26T12:30:57.314Z,4.02
2024-02-26T12:41:51.221Z,3.53
2024-02-26T12:48:58.043Z,3.22
2024-02-26T12:58:49.346Z,3.07
2024-02-26T13:05:21.372Z,2.92
2024-02-26T13:11:50.434Z,3.23
2024-02-26T13:29:08.214Z,3.16
2024-02-26T13:36:26.487Z,2.85
2024-02-26T13:38:55.983Z,2.56
2024-02-26T13:41:27.089Z,2.62
2024-02-26T13:44:06.655Z,2.60
2024-02-26T13:46:33.882Z,2.57
2024-02-26T13:49:01.456Z,2.53
2024-02-26T13:51:30.580Z,2.49
2024-02-26T13:54:00.716Z,2.45
2024-02-26T13:56:35.609Z,2.38
2024-02-26T13:59:02.738Z,2.33
2024-02-26T14:01:33.226Z,2.31
2024-02-26T14:04:03.243Z,2.26
2024-02-26T14:06:32.379Z,2.16
2024-02-26T14:09:01.994Z,2.12
2024-02-26T14:11:35.248Z,2.10
2024-02-26T14:14:02.592Z,2.19
2024-02-26T14:16:32.461Z,2.42
2024-02-26T14:19:00.569Z,2.69
2024-02-26T14:25:52.893Z,3.28
2024-02-26T14:28:25.634Z,3.06
2024-02-26T14:30:56.885Z,2.90
2024-02-26T14:33:24.345Z,2.75
2024-02-26T14:35:52.294Z,2.75
2024-02-26T14:38:19.563Z,2.61
2024-02-26T14:40:47.268Z,2.36
2024-02-26T14:43:14.599Z,2.12
2024-02-26T14:45:41.987Z,1.92
2024-02-26T14:48:09.854Z,1.75
2024-02-26T14:58:35.527Z,1.19
2024-02-26T15:01:02.643Z,1.04
2024-02-26T15:03:29.875Z,0.86
2024-02-26T15:05:57.145Z,0.72
2024-02-26T15:08:24.988Z,0.58
2024-02-26T15:10:52.376Z,0.44
2024-02-26T15:13:19.966Z,0.32
2024-02-26T15:15:48.014Z,0.21
2024-02-26T15:22:11.754Z,-0.14
2024-02-26T15:28:11.370Z,-0.22
2024-02-26T15:49:46.079Z,-0.90
2024-02-26T15:56:08.988Z,-1.35
2024-02-26T16:03:29.240Z,-1.38
2024-02-26T16:05:56.862Z,-1.28
2024-02-26T16:08:25.205Z,-1.33
2024-02-26T16:10:53.424Z,-1.38
2024-02-26T16:13:21.428Z,-1.43
2024-02-26T16:16:03.820Z,-1.46
2024-02-26T16:18:32.202Z,-1.51
2024-02-26T16:21:00.157Z,-1.53
2024-02-26T16:23:34.636Z,-1.56
2024-02-26T16:26:01.857Z,-1.61
2024-02-26T16:28:29.109Z,-1.64
2024-02-26T16:31:00.492Z,-1.67
2024-02-26T16:33:32.617Z,-1.74
2024-02-26T16:36:27.200Z,-1.79
2024-02-26T16:39:03.084Z,-1.99
2024-02-26T16:41:30.922Z,-1.78
2024-02-26T16:54:40.998Z,-2.09
2024-02-26T16:57:14.805Z,-2.19
2024-02-26T17:10:58.471Z,-2.14
2024-02-26T17:11:26.777Z,-2.19
2024-02-26T17:14:08.071Z,-2.02
2024-02-26T17:16:39.160Z,-2.25
2024-02-26T17:19:10.428Z,-2.02
2024-02-26T17:21:50.453Z,-2.29
2024-02-26T17:24:21.091Z,-2.23
2024-02-26T17:27:09.475Z,-1.98
2024-02-26T17:29:42.129Z,-1.98
2024-02-26T17:32:13.109Z,-2.03
2024-02-26T17:34:53.135Z,-2.18
2024-02-26T17:37:26.308Z,-2.16
2024-02-26T17:39:55.361Z,-2.21
2024-02-26T17:42:26.487Z,-1.95
2024-02-26T17:45:10.244Z,-1.97
2024-02-26T17:47:55.867Z,-2.09
2024-02-26T17:50:40.873Z,-1.99
2024-02-26T17:53:08.180Z,-2.05
2024-02-26T17:56:07.544Z,-2.02
2024-02-26T17:58:35.477Z,-2.05
2024-02-26T18:01:02.607Z,-2.16
2024-02-26T18:03:29.780Z,-2.12
2024-02-26T18:05:57.080Z,-2.13
2024-02-26T18:08:24.301Z,-2.15
2024-02-26T18:10:51.679Z,-2.17
2024-02-26T18:13:27.862Z,-2.18
2024-02-26T18:15:58.617Z,-2.21
2024-02-26T18:18:32.782Z,-2.22
2024-02-26T18:21:02.903Z,-2.28
2024-02-26T18:23:48.403Z,-2.26
2024-02-26T18:26:20.499Z,-2.30
2024-02-26T18:28:48.476Z,-2.32
2024-02-26T18:35:09.274Z,-2.50
2024-02-26T18:39:04.502Z,-2.61
2024-02-26T18:42:19.039Z,-2.54
2024-02-26T18:45:23.768Z,-2.57
2024-02-26T18:47:51.303Z,-2.47
2024-02-26T18:50:19.065Z,-2.52
2024-02-26T18:52:51.120Z,-2.51
2024-02-26T18:55:22.511Z,-2.55
2024-02-26T18:57:55.676Z,-2.69
2024-02-26T19:00:24.003Z,-2.56
2024-02-26T19:02:59.659Z,-2.62
2024-02-26T19:12:36.201Z,-2.79
2024-02-26T19:15:03.914Z,-2.66
2024-02-26T19:21:49.839Z,-2.77
2024-02-26T19:24:18.419Z,-2.79
2024-02-26T19:26:46.083Z,-2.65
2024-02-26T19:29:15.424Z,-2.71
2024-02-26T19:31:43.002Z,-2.71
2024-02-26T19:34:10.184Z,-2.76
2024-02-26T19:41:10.873Z,-2.83
2024-02-26T19:43:38.455Z,-2.79
2024-02-26T19:46:07.102Z,-2.77
2024-02-26T19:48:34.543Z,-2.77
2024-02-26T19:51:01.996Z,-2.78
2024-02-26T19:53:29.049Z,-2.79
2024-02-26T19:55:57.029Z,-2.82
2024-02-26T19:58:24.273Z,-2.83
2024-02-26T20:00:52.507Z,-2.85
2024-02-26T20:03:20.448Z,-2.87
2024-02-26T20:05:47.560Z,-2.86
2024-02-26T20:08:17.146Z,-2.89
2024-02-26T20:10:44.671Z,-2.88
2024-02-26T20:13:12.782Z,-2.90
2024-02-26T20:15:39.891Z,-2.94
2024-02-26T20:18:09.098Z,-2.94
2024-02-26T20:20:36.387Z,-2.95
2024-02-26T20:23:03.527Z,-2.95
2024-02-26T20:25:30.515Z,-2.98
2024-02-26T20:27:57.606Z,-2.96
2024-02-26T20:30:27.243Z,-2.94
2024-02-26T20:32:54.752Z,-2.92
2024-02-26T20:35:22.300Z,-2.92
2024-02-26T20:37:49.652Z,-2.90
2024-02-26T20:40:20.377Z,-2.92
2024-02-26T20:42:48.702Z,-2.99
2024-02-26T20:45:15.929Z,-2.96
2024-02-26T20:47:45.195Z,-3.01
2024-02-26T20:50:12.400Z,-3.03
2024-02-26T20:52:39.778Z,-3.03
2024-02-26T20:55:07.483Z,-3.10
2024-02-26T20:57:34.618Z,-3.07
2024-02-26T21:00:01.882Z,-3.14
2024-02-26T21:02:38.993Z,-3.14
2024-02-26T21:05:07.406Z,-3.08
2024-02-26T21:07:35.182Z,-3.10
2024-02-26T21:10:02.350Z,-3.12
2024-02-26T21:12:31.215Z,-3.18
2024-02-26T21:14:58.414Z,-3.14
2024-02-26T21:17:25.729Z,-3.16
2024-02-26T21:19:53.852Z,-3.18
2024-02-26T21:22:21.167Z,-3.21
2024-02-26T21:24:48.521Z,-3.21
2024-02-26T21:27:15.881Z,-3.25
2024-02-26T21:29:42.958Z,-3.31
2024-02-26T21:32:09.981Z,-3.27
2024-02-26T21:34:37.066Z,-3.28
2024-02-26T21:37:04.333Z,-3.28
2024-02-26T21:39:31.396Z,-3.30
2024-02-26T21:41:58.490Z,-3.30
2024-02-26T21:44:25.503Z,-3.30
2024-02-26T21:46:52.517Z,-3.30
2024-02-26T21:49:19.847Z,-3.32
2024-02-26T21:51:48.425Z,-3.34
2024-02-26T21:54:16.398Z,-3.36
2024-02-26T21:56:45.160Z,-3.40
2024-02-26T21:59:12.610Z,-3.39
2024-02-26T22:01:44.261Z,-3.44
2024-02-26T22:04:14.169Z,-3.42
2024-02-26T22:06:43.245Z,-3.41
2024-02-26T22:09:12.147Z,-3.43
2024-02-26T22:11:39.741Z,-3.45
2024-02-26T22:14:07.052Z,-3.47
2024-02-26T22:16:34.354Z,-3.51
2024-02-26T22:19:06.724Z,-3.49
2024-02-26T22:21:35.806Z,-3.51
2024-02-26T22:24:03.488Z,-3.50
2024-02-26T22:26:30.633Z,-3.52
2024-02-26T22:28:57.616Z,-3.50
2024-02-26T22:31:26.744Z,-3.51
2024-02-26T22:33:54.049Z,-3.51
2024-02-26T22:36:21.830Z,-3.52
2024-02-26T22:38:48.952Z,-3.53
2024-02-26T22:41:18.922Z,-3.53
2024-02-26T22:43:46.411Z,-3.56
2024-02-26T22:46:13.371Z,-3.55
2024-02-26T22:48:40.584Z,-3.54
2024-02-26T22:51:07.723Z,-3.54
2024-02-26T22:53:35.187Z,-3.54
2024-02-26T22:56:02.262Z,-3.51
2024-02-26T22:58:29.343Z,-3.59
2024-02-26T23:00:56.444Z,-3.55
2024-02-26T23:03:23.538Z,-3.62
2024-02-26T23:05:50.530Z,-3.58
2024-02-26T23:08:19.201Z,-3.57
2024-02-26T23:10:46.667Z,-3.58
2024-02-26T23:13:13.842Z,-3.57
2024-02-26T23:15:41.107Z,-3.58
2024-02-26T23:18:08.317Z,-3.59
2024-02-26T23:20:36.937Z,-3.59
2024-02-26T23:23:05.225Z,-3.61
2024-02-26T23:25:32.478Z,-3.61
2024-02-26T23:27:59.801Z,-3.62
2024-02-26T23:30:27.027Z,-3.62
2024-02-26T23:32:54.329Z,-3.61
2024-02-26T23:35:21.649Z,-3.60
2024-02-26T23:37:48.715Z,-3.58
2024-02-26T23:40:16.189Z,-3.60
2024-02-26T23:42:44.244Z,-3.55
2024-02-26T23:45:12.264Z,-3.52
2024-02-26T23:47:39.677Z,-3.49
2024-02-26T23:50:07.321Z,-3.42
2024-02-26T23:52:34.462Z,-3.42
2024-02-26T23:55:01.653Z,-3.34
2024-02-26T23:57:32.284Z,-3.30
2024-02-26T23:59:59.467Z,-3.25
